sensor_id;sensor_type;location;lat;lon;timestamp;pressure;altitude;pressure_sealevel;temperature;humidity
54666;BME280;40566;50.006;36.180;2023-05-19T00:03:52;100037.88;;;16.40;48.49
54666;BME280;40566;50.006;36.180;2023-05-19T00:08:58;100024.22;;;16.35;48.85
54666;BME280;40566;50.006;36.180;2023-05-19T00:13:59;100033.97;;;16.32;48.76
54666;BME280;40566;50.006;36.180;2023-05-19T00:19:02;100031.47;;;16.29;48.82
54666;BME280;40566;50.006;36.180;2023-05-19T00:24:03;100035.09;;;16.26;48.95
54666;BME280;40566;50.006;36.180;2023-05-19T00:29:04;100041.31;;;16.23;49.33
54666;BME280;40566;50.006;36.180;2023-05-19T00:34:04;100046.72;;;16.19;49.53
54666;BME280;40566;50.006;36.180;2023-05-19T00:39:05;100041.50;;;16.19;49.14
54666;BME280;40566;50.006;36.180;2023-05-19T00:44:06;100053.00;;;16.15;49.18
54666;BME280;40566;50.006;36.180;2023-05-19T00:49:07;100047.22;;;16.08;49.48
54666;BME280;40566;50.006;36.180;2023-05-19T00:54:08;100040.53;;;16.02;49.37
54666;BME280;40566;50.006;36.180;2023-05-19T00:59:09;100046.84;;;15.97;49.67
54666;BME280;40566;50.006;36.180;2023-05-19T01:04:09;100050.31;;;15.97;49.55
54666;BME280;40566;50.006;36.180;2023-05-19T01:09:10;100048.69;;;15.95;49.80
54666;BME280;40566;50.006;36.180;2023-05-19T01:14:11;100042.03;;;15.88;49.94
54666;BME280;40566;50.006;36.180;2023-05-19T01:24:44;100039.81;;;15.80;49.76
54666;BME280;40566;50.006;36.180;2023-05-19T01:35:11;100033.94;;;15.75;50.20
54666;BME280;40566;50.006;36.180;2023-05-19T01:40:14;100049.81;;;15.69;50.42
54666;BME280;40566;50.006;36.180;2023-05-19T01:45:15;100036.91;;;15.65;50.23
54666;BME280;40566;50.006;36.180;2023-05-19T01:50:17;100051.94;;;15.60;50.44
54666;BME280;40566;50.006;36.180;2023-05-19T01:55:19;100049.38;;;15.59;50.19
54666;BME280;40566;50.006;36.180;2023-05-19T02:05:48;100038.91;;;15.60;50.34
54666;BME280;40566;50.006;36.180;2023-05-19T02:11:41;100038.13;;;15.58;50.33
54666;BME280;40566;50.006;36.180;2023-05-19T02:16:16;100054.59;;;15.59;50.62
54666;BME280;40566;50.006;36.180;2023-05-19T02:21:16;100052.00;;;15.59;50.78
54666;BME280;40566;50.006;36.180;2023-05-19T02:26:17;100054.81;;;15.54;51.27
54666;BME280;40566;50.006;36.180;2023-05-19T02:31:17;100059.81;;;15.59;51.12
54666;BME280;40566;50.006;36.180;2023-05-19T02:36:18;100056.44;;;15.57;51.04
54666;BME280;40566;50.006;36.180;2023-05-19T02:41:19;100063.19;;;15.61;50.79
54666;BME280;40566;50.006;36.180;2023-05-19T02:46:21;100066.47;;;15.66;51.31
54666;BME280;40566;50.006;36.180;2023-05-19T02:51:21;100064.53;;;15.70;51.12
54666;BME280;40566;50.006;36.180;2023-05-19T02:56:22;100075.72;;;15.73;50.91
54666;BME280;40566;50.006;36.180;2023-05-19T03:01:22;100065.25;;;15.75;50.97
54666;BME280;40566;50.006;36.180;2023-05-19T03:06:23;100072.00;;;15.79;50.98
54666;BME280;40566;50.006;36.180;2023-05-19T03:11:24;100072.78;;;15.81;51.16
54666;BME280;40566;50.006;36.180;2023-05-19T03:16:25;100070.75;;;15.88;50.95
54666;BME280;40566;50.006;36.180;2023-05-19T03:21:27;100071.47;;;15.91;51.07
54666;BME280;40566;50.006;36.180;2023-05-19T03:26:28;100076.41;;;15.97;51.39
54666;BME280;40566;50.006;36.180;2023-05-19T03:31:28;100078.66;;;16.05;50.92
54666;BME280;40566;50.006;36.180;2023-05-19T03:36:29;100085.38;;;16.11;51.24
54666;BME280;40566;50.006;36.180;2023-05-19T03:41:38;100082.34;;;16.20;50.83
54666;BME280;40566;50.006;36.180;2023-05-19T03:46:39;100085.47;;;16.28;50.50
54666;BME280;40566;50.006;36.180;2023-05-19T03:51:39;100082.34;;;16.39;50.83
54666;BME280;40566;50.006;36.180;2023-05-19T03:56:41;100074.03;;;16.50;50.65
54666;BME280;40566;50.006;36.180;2023-05-19T04:01:42;100081.34;;;16.60;50.59
54666;BME280;40566;50.006;36.180;2023-05-19T04:06:42;100086.13;;;16.70;50.77
54666;BME280;40566;50.006;36.180;2023-05-19T04:11:43;100079.69;;;16.77;50.64
54666;BME280;40566;50.006;36.180;2023-05-19T04:16:43;100082.59;;;16.90;50.68
54666;BME280;40566;50.006;36.180;2023-05-19T04:21:44;100094.13;;;17.03;50.11
54666;BME280;40566;50.006;36.180;2023-05-19T04:26:44;100093.47;;;17.17;49.86
54666;BME280;40566;50.006;36.180;2023-05-19T04:31:46;100094.63;;;17.29;49.76
54666;BME280;40566;50.006;36.180;2023-05-19T04:36:48;100099.16;;;17.42;49.53
54666;BME280;40566;50.006;36.180;2023-05-19T04:41:48;100095.66;;;17.59;48.86
54666;BME280;40566;50.006;36.180;2023-05-19T04:46:49;100097.50;;;17.75;49.09
54666;BME280;40566;50.006;36.180;2023-05-19T04:51:53;100100.38;;;17.88;48.75
54666;BME280;40566;50.006;36.180;2023-05-19T04:56:55;100104.81;;;18.03;48.77
54666;BME280;40566;50.006;36.180;2023-05-19T05:01:56;100093.59;;;18.17;48.87
54666;BME280;40566;50.006;36.180;2023-05-19T05:06:57;100107.47;;;18.35;48.55
54666;BME280;40566;50.006;36.180;2023-05-19T05:11:57;100103.00;;;18.53;48.17
54666;BME280;40566;50.006;36.180;2023-05-19T05:16:58;100112.28;;;18.74;47.66
54666;BME280;40566;50.006;36.180;2023-05-19T05:21:59;100107.13;;;18.89;47.76
54666;BME280;40566;50.006;36.180;2023-05-19T05:27:00;100115.56;;;19.10;47.62
54666;BME280;40566;50.006;36.180;2023-05-19T05:32:01;100110.91;;;19.29;47.09
54666;BME280;40566;50.006;36.180;2023-05-19T05:37:01;100108.91;;;19.49;46.41
54666;BME280;40566;50.006;36.180;2023-05-19T05:42:02;100116.63;;;19.66;45.95
54666;BME280;40566;50.006;36.180;2023-05-19T05:47:03;100122.50;;;19.86;45.32
54666;BME280;40566;50.006;36.180;2023-05-19T05:52:04;100118.75;;;20.04;44.91
54666;BME280;40566;50.006;36.180;2023-05-19T05:57:06;100110.50;;;20.25;44.38
54666;BME280;40566;50.006;36.180;2023-05-19T06:02:06;100117.13;;;20.45;43.19
54666;BME280;40566;50.006;36.180;2023-05-19T06:07:07;100123.97;;;20.62;41.96
54666;BME280;40566;50.006;36.180;2023-05-19T06:12:08;100121.97;;;20.79;41.23
54666;BME280;40566;50.006;36.180;2023-05-19T06:17:09;100119.28;;;20.94;40.48
54666;BME280;40566;50.006;36.180;2023-05-19T06:22:09;100114.41;;;21.15;40.21
54666;BME280;40566;50.006;36.180;2023-05-19T06:27:10;100109.91;;;21.30;39.52
54666;BME280;40566;50.006;36.180;2023-05-19T06:32:11;100117.75;;;21.44;39.19
54666;BME280;40566;50.006;36.180;2023-05-19T06:37:11;100109.03;;;21.56;38.44
54666;BME280;40566;50.006;36.180;2023-05-19T06:42:14;100120.09;;;21.74;37.82
54666;BME280;40566;50.006;36.180;2023-05-19T06:47:15;100108.91;;;21.84;37.96
54666;BME280;40566;50.006;36.180;2023-05-19T06:52:16;100118.28;;;22.01;37.88
54666;BME280;40566;50.006;36.180;2023-05-19T06:57:16;100113.53;;;22.18;37.08
54666;BME280;40566;50.006;36.180;2023-05-19T07:02:17;100123.75;;;22.36;36.66
54666;BME280;40566;50.006;36.180;2023-05-19T07:07:18;100120.34;;;22.47;36.24
54666;BME280;40566;50.006;36.180;2023-05-19T07:12:18;100125.25;;;22.64;36.08
54666;BME280;40566;50.006;36.180;2023-05-19T07:17:19;100124.78;;;22.83;35.86
54666;BME280;40566;50.006;36.180;2023-05-19T07:22:19;100133.59;;;22.95;35.36
54666;BME280;40566;50.006;36.180;2023-05-19T07:27:21;100129.34;;;23.05;34.97
54666;BME280;40566;50.006;36.180;2023-05-19T07:32:22;100127.97;;;23.24;34.90
54666;BME280;40566;50.006;36.180;2023-05-19T07:37:22;100125.25;;;23.36;34.26
54666;BME280;40566;50.006;36.180;2023-05-19T07:42:23;100117.50;;;23.46;33.83
54666;BME280;40566;50.006;36.180;2023-05-19T07:47:23;100119.31;;;23.57;33.79
54666;BME280;40566;50.006;36.180;2023-05-19T07:52:24;100110.09;;;23.74;33.48
54666;BME280;40566;50.006;36.180;2023-05-19T07:57:25;100117.44;;;23.93;33.64
54666;BME280;40566;50.006;36.180;2023-05-19T08:02:25;100114.22;;;24.01;33.49
54666;BME280;40566;50.006;36.180;2023-05-19T08:07:26;100119.16;;;24.05;33.35
54666;BME280;40566;50.006;36.180;2023-05-19T08:12:27;100123.09;;;24.11;33.04
54666;BME280;40566;50.006;36.180;2023-05-19T08:17:28;100117.69;;;24.24;32.74
54666;BME280;40566;50.006;36.180;2023-05-19T08:22:28;100126.09;;;24.40;32.13
54666;BME280;40566;50.006;36.180;2023-05-19T08:27:29;100127.78;;;24.52;31.86
54666;BME280;40566;50.006;36.180;2023-05-19T08:32:30;100123.78;;;24.69;31.74
54666;BME280;40566;50.006;36.180;2023-05-19T08:37:30;100124.81;;;24.78;31.76
54666;BME280;40566;50.006;36.180;2023-05-19T08:42:31;100116.75;;;24.91;31.49
54666;BME280;40566;50.006;36.180;2023-05-19T08:47:35;100122.97;;;25.01;31.78
54666;BME280;40566;50.006;36.180;2023-05-19T08:52:47;100111.47;;;25.23;31.71
54666;BME280;40566;50.006;36.180;2023-05-19T08:57:49;100107.06;;;25.33;30.92
54666;BME280;40566;50.006;36.180;2023-05-19T09:02:50;100105.22;;;25.13;31.24
54666;BME280;40566;50.006;36.180;2023-05-19T09:07:52;100106.63;;;25.28;31.30
54666;BME280;40566;50.006;36.180;2023-05-19T09:12:53;100109.34;;;25.38;31.41
54666;BME280;40566;50.006;36.180;2023-05-19T09:18:11;100101.22;;;25.30;31.43
54666;BME280;40566;50.006;36.180;2023-05-19T09:23:16;100096.53;;;25.43;31.16
54666;BME280;40566;50.006;36.180;2023-05-19T09:33:24;100104.03;;;25.38;31.69
54666;BME280;40566;50.006;36.180;2023-05-19T09:38:25;100121.69;;;25.28;31.37
54666;BME280;40566;50.006;36.180;2023-05-19T09:43:27;100112.31;;;25.24;30.84
54666;BME280;40566;50.006;36.180;2023-05-19T09:48:28;100123.63;;;25.14;31.24
54666;BME280;40566;50.006;36.180;2023-05-19T09:53:29;100114.84;;;25.14;31.31
54666;BME280;40566;50.006;36.180;2023-05-19T09:58:32;100114.97;;;25.12;31.27
54666;BME280;40566;50.006;36.180;2023-05-19T10:03:36;100109.53;;;24.93;31.32
54666;BME280;40566;50.006;36.180;2023-05-19T10:08:38;100116.19;;;24.76;31.33
54666;BME280;40566;50.006;36.180;2023-05-19T10:13:41;100118.38;;;24.71;31.52
54666;BME280;40566;50.006;36.180;2023-05-19T10:18:43;100127.00;;;24.84;31.44
54666;BME280;40566;50.006;36.180;2023-05-19T10:23:43;100133.22;;;24.94;31.31
54666;BME280;40566;50.006;36.180;2023-05-19T10:28:44;100130.78;;;25.03;31.35
54666;BME280;40566;50.006;36.180;2023-05-19T10:39:16;100122.38;;;24.98;31.07
54666;BME280;40566;50.006;36.180;2023-05-19T10:49:26;100134.53;;;25.21;30.37
54666;BME280;40566;50.006;36.180;2023-05-19T10:54:41;100122.03;;;25.23;30.58
54666;BME280;40566;50.006;36.180;2023-05-19T10:59:43;100134.81;;;25.18;30.52
54666;BME280;40566;50.006;36.180;2023-05-19T11:04:49;100129.75;;;25.15;30.42
54666;BME280;40566;50.006;36.180;2023-05-19T11:09:51;100127.50;;;25.10;30.43
54666;BME280;40566;50.006;36.180;2023-05-19T11:14:53;100129.56;;;25.07;30.33
54666;BME280;40566;50.006;36.180;2023-05-19T11:19:55;100123.03;;;25.11;30.45
54666;BME280;40566;50.006;36.180;2023-05-19T11:24:56;100127.38;;;25.12;30.24
54666;BME280;40566;50.006;36.180;2023-05-19T11:29:59;100116.63;;;25.13;29.97
54666;BME280;40566;50.006;36.180;2023-05-19T11:35:01;100123.94;;;25.21;30.18
54666;BME280;40566;50.006;36.180;2023-05-19T11:40:05;100118.16;;;25.27;30.22
54666;BME280;40566;50.006;36.180;2023-05-19T11:45:07;100115.75;;;25.36;29.98
54666;BME280;40566;50.006;36.180;2023-05-19T11:50:09;100115.34;;;25.61;29.94
54666;BME280;40566;50.006;36.180;2023-05-19T11:55:18;100110.09;;;25.92;29.61
54666;BME280;40566;50.006;36.180;2023-05-19T12:00:21;100106.53;;;25.82;29.78
54666;BME280;40566;50.006;36.180;2023-05-19T12:05:23;100099.63;;;25.69;29.87
54666;BME280;40566;50.006;36.180;2023-05-19T12:10:29;100111.97;;;25.59;29.71
54666;BME280;40566;50.006;36.180;2023-05-19T12:15:30;100120.91;;;25.58;29.28
54666;BME280;40566;50.006;36.180;2023-05-19T12:20:31;100104.28;;;25.77;29.59
54666;BME280;40566;50.006;36.180;2023-05-19T12:25:34;100105.81;;;26.01;29.42
54666;BME280;40566;50.006;36.180;2023-05-19T12:30:35;100094.34;;;26.00;29.02
54666;BME280;40566;50.006;36.180;2023-05-19T12:35:36;100096.59;;;25.95;29.25
54666;BME280;40566;50.006;36.180;2023-05-19T12:40:37;100090.03;;;25.99;29.55
54666;BME280;40566;50.006;36.180;2023-05-19T12:45:39;100094.88;;;25.94;29.35
54666;BME280;40566;50.006;36.180;2023-05-19T12:50:42;100084.91;;;25.86;29.17
54666;BME280;40566;50.006;36.180;2023-05-19T12:55:46;100093.41;;;25.80;29.51
54666;BME280;40566;50.006;36.180;2023-05-19T13:00:47;100088.00;;;25.61;29.76
54666;BME280;40566;50.006;36.180;2023-05-19T13:05:49;100083.81;;;25.58;29.84
54666;BME280;40566;50.006;36.180;2023-05-19T13:10:50;100086.72;;;25.55;29.78
54666;BME280;40566;50.006;36.180;2023-05-19T13:15:51;100091.25;;;25.43;29.79
54666;BME280;40566;50.006;36.180;2023-05-19T13:20:51;100084.69;;;25.38;29.78
54666;BME280;40566;50.006;36.180;2023-05-19T13:25:53;100071.94;;;25.31;30.15
54666;BME280;40566;50.006;36.180;2023-05-19T13:30:54;100060.69;;;25.39;29.62
54666;BME280;40566;50.006;36.180;2023-05-19T13:35:54;100062.69;;;25.47;29.72
54666;BME280;40566;50.006;36.180;2023-05-19T13:40:55;100071.34;;;25.49;29.93
54666;BME280;40566;50.006;36.180;2023-05-19T13:45:56;100062.25;;;25.42;29.65
54666;BME280;40566;50.006;36.180;2023-05-19T13:50:57;100067.63;;;25.30;29.75
54666;BME280;40566;50.006;36.180;2023-05-19T13:55:59;100057.03;;;25.30;29.53
54666;BME280;40566;50.006;36.180;2023-05-19T14:01:00;100065.22;;;25.27;30.13
54666;BME280;40566;50.006;36.180;2023-05-19T14:06:01;100070.16;;;25.21;30.42
54666;BME280;40566;50.006;36.180;2023-05-19T14:11:02;100070.56;;;25.16;30.06
54666;BME280;40566;50.006;36.180;2023-05-19T14:16:03;100061.31;;;25.10;29.95
54666;BME280;40566;50.006;36.180;2023-05-19T14:21:04;100067.25;;;25.03;30.04
54666;BME280;40566;50.006;36.180;2023-05-19T14:26:04;100070.41;;;24.97;30.28
54666;BME280;40566;50.006;36.180;2023-05-19T14:31:05;100065.63;;;24.90;30.09
54666;BME280;40566;50.006;36.180;2023-05-19T14:36:10;100056.81;;;24.90;30.41
54666;BME280;40566;50.006;36.180;2023-05-19T14:41:11;100056.97;;;24.88;30.36
54666;BME280;40566;50.006;36.180;2023-05-19T14:46:11;100066.97;;;24.85;30.46
54666;BME280;40566;50.006;36.180;2023-05-19T14:51:12;100063.25;;;24.76;30.24
54666;BME280;40566;50.006;36.180;2023-05-19T14:56:12;100068.72;;;24.63;30.38
54666;BME280;40566;50.006;36.180;2023-05-19T15:01:13;100063.81;;;24.59;30.34
54666;BME280;40566;50.006;36.180;2023-05-19T15:06:14;100064.19;;;24.54;30.42
54666;BME280;40566;50.006;36.180;2023-05-19T15:11:17;100065.28;;;24.51;30.88
54666;BME280;40566;50.006;36.180;2023-05-19T15:16:17;100064.75;;;24.46;30.76
54666;BME280;40566;50.006;36.180;2023-05-19T15:21:18;100067.91;;;24.40;30.97
54666;BME280;40566;50.006;36.180;2023-05-19T15:26:18;100058.66;;;24.34;30.75
54666;BME280;40566;50.006;36.180;2023-05-19T15:31:20;100062.53;;;24.30;30.59
54666;BME280;40566;50.006;36.180;2023-05-19T15:36:21;100070.13;;;24.24;30.93
54666;BME280;40566;50.006;36.180;2023-05-19T15:41:22;100063.63;;;24.17;31.09
54666;BME280;40566;50.006;36.180;2023-05-19T15:46:22;100070.38;;;24.09;31.70
54666;BME280;40566;50.006;36.180;2023-05-19T15:51:23;100068.34;;;24.02;32.11
54666;BME280;40566;50.006;36.180;2023-05-19T15:56:24;100074.34;;;23.92;32.07
54666;BME280;40566;50.006;36.180;2023-05-19T16:01:25;100073.28;;;23.84;32.06
54666;BME280;40566;50.006;36.180;2023-05-19T16:06:26;100076.59;;;23.74;32.23
54666;BME280;40566;50.006;36.180;2023-05-19T16:11:26;100080.53;;;23.69;31.34
54666;BME280;40566;50.006;36.180;2023-05-19T16:16:27;100083.66;;;23.63;31.37
54666;BME280;40566;50.006;36.180;2023-05-19T16:21:28;100093.88;;;23.56;31.52
54666;BME280;40566;50.006;36.180;2023-05-19T16:26:28;100092.53;;;23.50;31.33
54666;BME280;40566;50.006;36.180;2023-05-19T16:31:32;100110.41;;;23.47;31.74
54666;BME280;40566;50.006;36.180;2023-05-19T16:36:32;100110.03;;;23.40;31.96
54666;BME280;40566;50.006;36.180;2023-05-19T16:41:33;100120.81;;;23.37;31.70
54666;BME280;40566;50.006;36.180;2023-05-19T16:46:36;100118.38;;;23.34;32.05
54666;BME280;40566;50.006;36.180;2023-05-19T16:51:36;100129.19;;;23.31;32.05
54666;BME280;40566;50.006;36.180;2023-05-19T16:56:37;100119.31;;;23.22;32.41
54666;BME280;40566;50.006;36.180;2023-05-19T17:01:37;100120.03;;;23.12;32.72
54666;BME280;40566;50.006;36.180;2023-05-19T17:06:38;100124.59;;;22.97;33.11
54666;BME280;40566;50.006;36.180;2023-05-19T17:11:39;100134.34;;;22.84;33.69
54666;BME280;40566;50.006;36.180;2023-05-19T17:16:41;100125.78;;;22.69;34.07
54666;BME280;40566;50.006;36.180;2023-05-19T17:21:41;100134.25;;;22.49;34.50
54666;BME280;40566;50.006;36.180;2023-05-19T17:26:42;100133.66;;;22.32;34.55
54666;BME280;40566;50.006;36.180;2023-05-19T17:31:43;100130.19;;;22.19;34.64
54666;BME280;40566;50.006;36.180;2023-05-19T17:36:43;100136.31;;;22.07;35.01
54666;BME280;40566;50.006;36.180;2023-05-19T17:41:44;100136.34;;;21.94;35.32
54666;BME280;40566;50.006;36.180;2023-05-19T17:46:44;100139.16;;;21.78;35.35
54666;BME280;40566;50.006;36.180;2023-05-19T17:51:45;100144.59;;;21.62;35.91
54666;BME280;40566;50.006;36.180;2023-05-19T17:56:49;100146.59;;;21.46;36.19
54666;BME280;40566;50.006;36.180;2023-05-19T18:01:51;100136.13;;;21.31;36.70
54666;BME280;40566;50.006;36.180;2023-05-19T18:06:52;100155.34;;;21.19;37.06
54666;BME280;40566;50.006;36.180;2023-05-19T18:11:53;100155.22;;;21.08;37.47
54666;BME280;40566;50.006;36.180;2023-05-19T18:16:56;100150.75;;;20.95;37.71
54666;BME280;40566;50.006;36.180;2023-05-19T18:21:56;100154.25;;;20.82;38.24
54666;BME280;40566;50.006;36.180;2023-05-19T18:26:59;100153.34;;;20.68;38.91
54666;BME280;40566;50.006;36.180;2023-05-19T18:32:00;100149.59;;;20.58;39.00
54666;BME280;40566;50.006;36.180;2023-05-19T18:37:01;100148.56;;;20.46;39.56
54666;BME280;40566;50.006;36.180;2023-05-19T18:42:02;100158.72;;;20.38;39.68
54666;BME280;40566;50.006;36.180;2023-05-19T18:47:03;100149.53;;;20.31;40.26
54666;BME280;40566;50.006;36.180;2023-05-19T18:52:04;100160.22;;;20.28;40.70
54666;BME280;40566;50.006;36.180;2023-05-19T18:57:04;100156.16;;;20.22;41.79
54666;BME280;40566;50.006;36.180;2023-05-19T19:02:05;100161.72;;;20.17;42.10
54666;BME280;40566;50.006;36.180;2023-05-19T19:07:06;100160.22;;;20.13;42.27
54666;BME280;40566;50.006;36.180;2023-05-19T19:12:07;100165.66;;;20.10;42.06
54666;BME280;40566;50.006;36.180;2023-05-19T19:17:07;100158.88;;;20.06;42.27
54666;BME280;40566;50.006;36.180;2023-05-19T19:22:09;100164.44;;;20.01;42.69
54666;BME280;40566;50.006;36.180;2023-05-19T19:27:12;100159.56;;;19.95;42.73
54666;BME280;40566;50.006;36.180;2023-05-19T19:32:15;100151.09;;;19.90;42.65
54666;BME280;40566;50.006;36.180;2023-05-19T19:37:16;100150.53;;;19.85;43.11
54666;BME280;40566;50.006;36.180;2023-05-19T19:42:17;100155.13;;;19.81;43.55
54666;BME280;40566;50.006;36.180;2023-05-19T19:47:18;100150.03;;;19.78;43.30
54666;BME280;40566;50.006;36.180;2023-05-19T19:52:21;100151.16;;;19.74;43.24
54666;BME280;40566;50.006;36.180;2023-05-19T19:57:23;100160.13;;;19.70;43.48
54666;BME280;40566;50.006;36.180;2023-05-19T20:02:23;100158.47;;;19.69;42.89
54666;BME280;40566;50.006;36.180;2023-05-19T20:07:24;100169.13;;;19.66;42.98
54666;BME280;40566;50.006;36.180;2023-05-19T20:12:25;100168.94;;;19.69;42.65
54666;BME280;40566;50.006;36.180;2023-05-19T20:17:26;100170.06;;;19.65;42.95
54666;BME280;40566;50.006;36.180;2023-05-19T20:22:26;100174.38;;;19.66;42.56
54666;BME280;40566;50.006;36.180;2023-05-19T20:27:27;100181.31;;;19.67;42.97
54666;BME280;40566;50.006;36.180;2023-05-19T20:32:27;100184.78;;;19.68;42.77
54666;BME280;40566;50.006;36.180;2023-05-19T20:37:28;100189.19;;;19.67;42.84
54666;BME280;40566;50.006;36.180;2023-05-19T20:42:29;100180.56;;;19.65;42.36
54666;BME280;40566;50.006;36.180;2023-05-19T20:47:30;100207.19;;;19.59;42.30
54666;BME280;40566;50.006;36.180;2023-05-19T20:52:31;100220.47;;;19.56;42.71
54666;BME280;40566;50.006;36.180;2023-05-19T20:57:32;100213.69;;;19.52;42.72
54666;BME280;40566;50.006;36.180;2023-05-19T21:02:33;100212.28;;;19.46;42.99
54666;BME280;40566;50.006;36.180;2023-05-19T21:07:33;100220.31;;;19.43;43.27
54666;BME280;40566;50.006;36.180;2023-05-19T21:12:34;100208.22;;;19.40;43.31
54666;BME280;40566;50.006;36.180;2023-05-19T21:17:34;100213.47;;;19.40;43.15
54666;BME280;40566;50.006;36.180;2023-05-19T21:22:36;100199.59;;;19.38;43.17
54666;BME280;40566;50.006;36.180;2023-05-19T21:27:37;100214.50;;;19.38;43.09
54666;BME280;40566;50.006;36.180;2023-05-19T21:32:38;100211.94;;;19.36;43.44
54666;BME280;40566;50.006;36.180;2023-05-19T21:37:39;100210.50;;;19.31;43.48
54666;BME280;40566;50.006;36.180;2023-05-19T21:42:39;100208.75;;;19.31;43.09
54666;BME280;40566;50.006;36.180;2023-05-19T21:47:41;100209.19;;;19.24;43.67
54666;BME280;40566;50.006;36.180;2023-05-19T21:52:41;100211.97;;;19.20;43.46
54666;BME280;40566;50.006;36.180;2023-05-19T21:57:42;100212.25;;;19.16;43.50
54666;BME280;40566;50.006;36.180;2023-05-19T22:02:42;100207.34;;;19.10;43.95
54666;BME280;40566;50.006;36.180;2023-05-19T22:07:43;100212.75;;;19.07;44.06
54666;BME280;40566;50.006;36.180;2023-05-19T22:12:45;100226.34;;;18.97;44.23
54666;BME280;40566;50.006;36.180;2023-05-19T22:17:45;100212.91;;;18.88;44.52
54666;BME280;40566;50.006;36.180;2023-05-19T22:22:46;100214.31;;;18.77;45.39
54666;BME280;40566;50.006;36.180;2023-05-19T22:27:47;100215.81;;;18.66;45.28
54666;BME280;40566;50.006;36.180;2023-05-19T22:32:47;100211.94;;;18.57;45.89
54666;BME280;40566;50.006;36.180;2023-05-19T22:37:48;100220.19;;;18.49;45.58
54666;BME280;40566;50.006;36.180;2023-05-19T22:42:48;100220.84;;;18.37;45.98
54666;BME280;40566;50.006;36.180;2023-05-19T22:47:49;100215.94;;;18.31;45.69
54666;BME280;40566;50.006;36.180;2023-05-19T22:52:50;100222.34;;;18.25;46.29
54666;BME280;40566;50.006;36.180;2023-05-19T22:57:50;100227.72;;;18.22;46.43
54666;BME280;40566;50.006;36.180;2023-05-19T23:02:51;100227.28;;;18.14;46.28
54666;BME280;40566;50.006;36.180;2023-05-19T23:07:51;100237.06;;;18.10;46.70
54666;BME280;40566;50.006;36.180;2023-05-19T23:12:52;100233.75;;;18.07;47.01
54666;BME280;40566;50.006;36.180;2023-05-19T23:17:53;100238.31;;;18.03;46.96
54666;BME280;40566;50.006;36.180;2023-05-19T23:22:53;100223.06;;;17.94;47.10
54666;BME280;40566;50.006;36.180;2023-05-19T23:27:54;100224.97;;;17.90;46.97
54666;BME280;40566;50.006;36.180;2023-05-19T23:32:55;100226.28;;;17.81;47.47
54666;BME280;40566;50.006;36.180;2023-05-19T23:37:55;100211.66;;;17.77;47.60
54666;BME280;40566;50.006;36.180;2023-05-19T23:42:56;100210.38;;;17.67;47.75
54666;BME280;40566;50.006;36.180;2023-05-19T23:47:57;100209.72;;;17.63;48.22
54666;BME280;40566;50.006;36.180;2023-05-19T23:52:57;100221.22;;;17.59;48.44
54666;BME280;40566;50.006;36.180;2023-05-19T23:57:58;100231.94;;;17.55;48.58
